ADDS METAR Data INFO
IDs: Format: Raw Decoded Include TAF

Data at: 0807 UTC 23 Jul 2018

PHNY 230756Z AUTO 06012KT 10SM BKN012 23/21 A3006 RMK AO2 SLP158 T02280211
PHNY 230705Z AUTO 06011KT 10SM SCT016 BKN022 23/21 A3006 RMK AO2
PHNY 230656Z AUTO 05012KT 10SM SCT016 23/21 A3006 RMK AO2 SLP155 T02330211
PHNY 230623Z AUTO 05012KT 10SM FEW014 BKN023 23/21 A3005 RMK AO2
PHNY 230556Z AUTO 04013KT 10SM CLR 23/21 A3005 RMK AO2 SLP153 T02330211 10278 20228 53008
PHNY 230512Z AUTO 04013KT 10SM SCT025 SCT035 23/21 A3004 RMK AO2
PHNY 230456Z AUTO 04013KT 10SM BKN027 OVC035 23/21 A3004 RMK AO2 SLP151 T02330211
PHNY 230352Z AUTO 04015KT 10SM BKN022 BKN031 24/21 A3002 RMK AO2
PHNY 230256Z AUTO 03013KT 10SM FEW027 26/21 A3001 RMK AO2 SLP141 T02560211 56000
PHNY 230214Z AUTO 04020KT 10SM SCT024 BKN030 27/21 A3001 RMK AO2
PHNY 230156Z AUTO 04016KT 10SM BKN024 BKN028 26/21 A3001 RMK AO2 SLP141 T02610211
PHNY 230153Z AUTO 04016G21KT 10SM BKN024 BKN028 26/21 A3001 RMK AO2
PHNY 230056Z AUTO 04016KT 10SM BKN044 28/21 A3001 RMK AO2 SLP141 T02780211
PHNY 230007Z AUTO 05017KT 10SM SCT028 BKN038 28/22 A3003 RMK AO2
PHNY 222356Z AUTO 03014KT 10SM BKN028 BKN038 27/21 A3003 RMK AO2 SLP145 T02720211 10278 20239 58007
PHNY 222256Z AUTO 31008KT 10SM BKN020 26/20 A3004 RMK AO2 SLP150 T02610200
PHNY 222227Z AUTO 27008KT 10SM BKN023 26/20 A3004 RMK AO2
PHNY 222156Z AUTO VRB05KT 10SM FEW030 27/20 A3005 RMK AO2 SLP152 T02670200
PHNY 222122Z AUTO 27007KT 240V310 10SM SCT030 27/19 A3005 RMK AO2
PHNY 222056Z AUTO 27009KT 10SM BKN026 OVC030 26/19 A3005 RMK AO2 SLP153 T02610194 53002
PHNY 221956Z AUTO 34005KT 10SM BKN024 25/20 A3004 RMK AO2 SLP151 T02500200
PHNY 221953Z AUTO 31004KT 10SM BKN021 BKN026 25/20 A3004 RMK AO2
PHNY 221856Z AUTO 17009KT 10SM SCT023 25/19 A3004 RMK AO2 SLP152 T02500194
PHNY 221756Z AUTO 07008KT 10SM CLR 24/19 A3003 RMK AO2 SLP149 T02390194 10239 20206 53011
PHNY 221722Z AUTO 06009KT 10SM FEW002 23/19 A3003 RMK AO2
PHNY 221656Z AUTO 08007KT 10SM CLR 23/19 A3002 RMK AO2 SLP146 T02280194
PHNY 221632Z AUTO 07011G19KT 10SM FEW002 22/19 A3001 RMK AO2
PHNY 221556Z AUTO 09007KT 10SM SCT015 21/19 A3001 RMK AO2 SLP141 T02110189
PHNY 221537Z AUTO 12003KT 10SM BKN017 21/18 A3001 RMK AO2
PHNY 221456Z AUTO 09003KT 10SM CLR 21/19 A3000 RMK AO2 SLP138 T02110189 56004
PHNY 221356Z AUTO 06007KT 10SM CLR 21/19 A3000 RMK AO2 SLP138 T02110189
PHNY 221256Z AUTO 04014G17KT 10SM SCT065 22/19 A2999 RMK AO2 SLP134 T02170194
PHNY 221156Z AUTO 04014G17KT 10SM OVC070 22/19 A3001 RMK AO2 SLP141 T02170194 10228 20217 58014
PHNY 221056Z AUTO 05009G17KT 10SM SCT024 OVC065 22/19 A3004 RMK AO2 SLP150 T02170194
PHNY 220956Z AUTO 09008KT 10SM FEW016 BKN023 22/19 A3006 RMK AO2 SLP157 T02170194 402670206
PHNY 220856Z AUTO 07011G19KT 10SM SCT065 22/19 A3006 RMK AO2 SLP156 T02220189 50008
PHNY 220756Z AUTO 04017G23KT 10SM FEW050 BKN065 22/19 A3006 RMK AO2 SLP157 T02220189
PHNY 220656Z AUTO 04019G23KT 10SM FEW030 OVC050 22/19 A3005 RMK AO2 SLP154 T02220189
PHNY 220556Z AUTO 05017G24KT 10SM OVC055 22/19 A3003 RMK AO2 SLP149 T02220189 10267 20222 51013
PHNY 220456Z AUTO 04014G24KT 10SM SCT060 23/18 A3002 RMK AO2 PK WND 04028/0437 SLP145 T02280183
PHNY 220356Z AUTO 05013G29KT 10SM FEW043 OVC055 23/18 A3001 RMK AO2 PK WND 04029/0351 SLP140 T02330178
PHNY 220256Z AUTO 04023G27KT 10SM OVC048 24/19 A2999 RMK AO2 PK WND 03028/0208 SLP135 T02390189 56004
PHNY 220156Z AUTO 03023KT 10SM SCT040 BKN050 26/19 A2999 RMK AO2 PK WND 03029/0137 SLP134 T02560189
PHNY 220056Z AUTO 04019G25KT 10SM CLR 26/19 A3000 RMK AO2 PK WND 04029/0021 SLP136 T02610194
PHNY 212356Z AUTO 03020G30KT 10SM FEW033 26/19 A3000 RMK AO2 PK WND 03030/2352 SLP138 T02610189 10267 20228 58014
PHNY 212256Z AUTO 03022G30KT 10SM FEW028 26/19 A3002 RMK AO2 PK WND 01030/2248 SLP145 T02610189
PHNY 212056Z AUTO 04023G29KT 10SM CLR 25/19 A3005 RMK AO2 PK WND 05030/2024 SLP153 T02500194 50002